Sainte-Famille, Canada
Current Conditions -  °F | °C
As of 4:00 PM on Sunday 23 Nov 2014 (Local Time) from CYQB Reporting Station
Haze Haze  
Wind Chill: 36°   Ceiling: 700
Heat Index: 36°   Visibility: 3mi
Dew Point: 36°   Wind: 2mph
Humidity: 100%   Direction: 240°WSW
Pressure: 30.05"   Gusts: NA
Location:  46.97°N, 70.95°W
Report Text: CYQB 232100Z 24002KT 3SM BR OVC007 02/02 A3005 RMK ST8 CIG VRB 5-9 SLP181
Loading
Personal Weather Stations






























Interactive Weather Map New forecast layout! Learn more

10-Day Weather Forecast

Advertisements
Track Severe Weather on mobile